sensor_id;sensor_type;location;lat;lon;timestamp;P1;durP1;ratioP1;P2;durP2;ratioP2
67278;SDS011;54193;53.746;10.058;2023-02-21T00:01:42;6.37;;;2.40;;
67278;SDS011;54193;53.746;10.058;2023-02-21T00:04:47;10.35;;;2.85;;
67278;SDS011;54193;53.746;10.058;2023-02-21T00:07:51;8.32;;;3.28;;
67278;SDS011;54193;53.746;10.058;2023-02-21T00:10:55;10.93;;;3.10;;
67278;SDS011;54193;53.746;10.058;2023-02-21T00:13:59;12.02;;;3.67;;
67278;SDS011;54193;53.746;10.058;2023-02-21T00:17:03;11.70;;;3.42;;
67278;SDS011;54193;53.746;10.058;2023-02-21T00:20:08;10.27;;;2.50;;
67278;SDS011;54193;53.746;10.058;2023-02-21T00:23:12;14.38;;;3.03;;
67278;SDS011;54193;53.746;10.058;2023-02-21T00:26:17;11.50;;;2.60;;
67278;SDS011;54193;53.746;10.058;2023-02-21T00:29:21;11.90;;;3.08;;
67278;SDS011;54193;53.746;10.058;2023-02-21T00:32:25;9.97;;;2.70;;
67278;SDS011;54193;53.746;10.058;2023-02-21T00:35:29;9.60;;;2.83;;
67278;SDS011;54193;53.746;10.058;2023-02-21T00:38:35;12.32;;;2.40;;
67278;SDS011;54193;53.746;10.058;2023-02-21T00:41:40;6.47;;;1.77;;
67278;SDS011;54193;53.746;10.058;2023-02-21T00:44:44;7.57;;;2.45;;
67278;SDS011;54193;53.746;10.058;2023-02-21T00:47:48;8.30;;;1.85;;
67278;SDS011;54193;53.746;10.058;2023-02-21T00:50:52;6.57;;;2.08;;
67278;SDS011;54193;53.746;10.058;2023-02-21T00:53:56;5.60;;;2.00;;
67278;SDS011;54193;53.746;10.058;2023-02-21T00:57:00;6.90;;;1.90;;
67278;SDS011;54193;53.746;10.058;2023-02-21T01:00:06;6.03;;;1.65;;
67278;SDS011;54193;53.746;10.058;2023-02-21T01:03:12;3.77;;;1.37;;
67278;SDS011;54193;53.746;10.058;2023-02-21T01:06:17;6.15;;;1.60;;
67278;SDS011;54193;53.746;10.058;2023-02-21T01:09:21;7.35;;;2.08;;
67278;SDS011;54193;53.746;10.058;2023-02-21T01:12:25;6.57;;;2.10;;
67278;SDS011;54193;53.746;10.058;2023-02-21T01:15:29;5.55;;;1.73;;
67278;SDS011;54193;53.746;10.058;2023-02-21T01:18:33;9.02;;;2.45;;
67278;SDS011;54193;53.746;10.058;2023-02-21T01:21:37;8.70;;;2.90;;
67278;SDS011;54193;53.746;10.058;2023-02-21T01:24:42;8.02;;;2.58;;
67278;SDS011;54193;53.746;10.058;2023-02-21T01:27:46;8.70;;;2.78;;
67278;SDS011;54193;53.746;10.058;2023-02-21T01:30:50;9.20;;;2.80;;
67278;SDS011;54193;53.746;10.058;2023-02-21T01:33:55;13.13;;;3.00;;
67278;SDS011;54193;53.746;10.058;2023-02-21T01:36:59;8.55;;;3.25;;
67278;SDS011;54193;53.746;10.058;2023-02-21T01:40:03;11.32;;;3.05;;
67278;SDS011;54193;53.746;10.058;2023-02-21T01:43:12;11.33;;;3.23;;
67278;SDS011;54193;53.746;10.058;2023-02-21T01:46:18;10.70;;;3.10;;
67278;SDS011;54193;53.746;10.058;2023-02-21T01:49:23;7.57;;;2.60;;
67278;SDS011;54193;53.746;10.058;2023-02-21T01:52:28;8.10;;;2.67;;
67278;SDS011;54193;53.746;10.058;2023-02-21T01:55:32;10.00;;;2.35;;
67278;SDS011;54193;53.746;10.058;2023-02-21T01:58:37;12.50;;;3.28;;
67278;SDS011;54193;53.746;10.058;2023-02-21T02:01:44;10.60;;;3.08;;
67278;SDS011;54193;53.746;10.058;2023-02-21T02:04:55;8.20;;;2.60;;
67278;SDS011;54193;53.746;10.058;2023-02-21T02:07:59;8.32;;;2.88;;
67278;SDS011;54193;53.746;10.058;2023-02-21T02:11:08;8.00;;;2.45;;
67278;SDS011;54193;53.746;10.058;2023-02-21T02:14:23;8.03;;;2.53;;
67278;SDS011;54193;53.746;10.058;2023-02-21T02:30:02;9.65;;;2.25;;
67278;SDS011;54193;53.746;10.058;2023-02-21T02:33:25;7.72;;;1.90;;
67278;SDS011;54193;53.746;10.058;2023-02-21T02:39:06;9.23;;;2.85;;
67278;SDS011;54193;53.746;10.058;2023-02-21T02:48:43;8.75;;;3.03;;
67278;SDS011;54193;53.746;10.058;2023-02-21T02:51:37;9.98;;;3.40;;
67278;SDS011;54193;53.746;10.058;2023-02-21T02:54:23;10.23;;;3.10;;
67278;SDS011;54193;53.746;10.058;2023-02-21T02:57:09;9.35;;;3.35;;
67278;SDS011;54193;53.746;10.058;2023-02-21T02:59:57;9.80;;;2.80;;
67278;SDS011;54193;53.746;10.058;2023-02-21T03:06:09;6.70;;;2.60;;
67278;SDS011;54193;53.746;10.058;2023-02-21T03:09:17;7.20;;;2.70;;
67278;SDS011;54193;53.746;10.058;2023-02-21T03:12:20;8.35;;;2.13;;
67278;SDS011;54193;53.746;10.058;2023-02-21T03:15:21;11.67;;;3.50;;
67278;SDS011;54193;53.746;10.058;2023-02-21T03:21:39;8.48;;;2.70;;
67278;SDS011;54193;53.746;10.058;2023-02-21T03:24:29;7.22;;;3.00;;
67278;SDS011;54193;53.746;10.058;2023-02-21T03:27:17;12.18;;;3.40;;
67278;SDS011;54193;53.746;10.058;2023-02-21T03:30:05;9.55;;;2.35;;
67278;SDS011;54193;53.746;10.058;2023-02-21T03:32:52;7.57;;;1.77;;
67278;SDS011;54193;53.746;10.058;2023-02-21T03:35:39;7.63;;;1.60;;
67278;SDS011;54193;53.746;10.058;2023-02-21T03:38:29;7.15;;;1.70;;
67278;SDS011;54193;53.746;10.058;2023-02-21T03:41:16;9.15;;;1.38;;
67278;SDS011;54193;53.746;10.058;2023-02-21T03:44:01;5.77;;;1.13;;
67278;SDS011;54193;53.746;10.058;2023-02-21T03:46:47;9.00;;;1.52;;
67278;SDS011;54193;53.746;10.058;2023-02-21T03:49:32;5.78;;;1.38;;
67278;SDS011;54193;53.746;10.058;2023-02-21T03:52:18;7.20;;;1.35;;
67278;SDS011;54193;53.746;10.058;2023-02-21T03:55:04;7.35;;;1.30;;
67278;SDS011;54193;53.746;10.058;2023-02-21T03:57:50;6.68;;;1.40;;
67278;SDS011;54193;53.746;10.058;2023-02-21T04:00:36;10.35;;;1.10;;
67278;SDS011;54193;53.746;10.058;2023-02-21T04:03:22;10.67;;;1.13;;
67278;SDS011;54193;53.746;10.058;2023-02-21T04:06:08;10.65;;;1.45;;
67278;SDS011;54193;53.746;10.058;2023-02-21T04:08:53;13.25;;;2.08;;
67278;SDS011;54193;53.746;10.058;2023-02-21T04:11:42;8.27;;;1.30;;
67278;SDS011;54193;53.746;10.058;2023-02-21T04:14:29;11.48;;;1.60;;
67278;SDS011;54193;53.746;10.058;2023-02-21T04:17:14;11.30;;;1.55;;
67278;SDS011;54193;53.746;10.058;2023-02-21T04:20:00;6.68;;;1.70;;
67278;SDS011;54193;53.746;10.058;2023-02-21T04:22:46;10.57;;;1.50;;
67278;SDS011;54193;53.746;10.058;2023-02-21T04:25:31;8.27;;;1.65;;
67278;SDS011;54193;53.746;10.058;2023-02-21T04:28:17;8.50;;;1.50;;
67278;SDS011;54193;53.746;10.058;2023-02-21T04:31:03;9.03;;;1.80;;
67278;SDS011;54193;53.746;10.058;2023-02-21T04:33:48;7.40;;;1.40;;
67278;SDS011;54193;53.746;10.058;2023-02-21T04:36:34;9.77;;;1.70;;
67278;SDS011;54193;53.746;10.058;2023-02-21T04:39:22;12.17;;;2.37;;
67278;SDS011;54193;53.746;10.058;2023-02-21T04:42:08;11.63;;;2.30;;
67278;SDS011;54193;53.746;10.058;2023-02-21T04:44:53;9.98;;;2.55;;
67278;SDS011;54193;53.746;10.058;2023-02-21T04:47:39;12.98;;;2.83;;
67278;SDS011;54193;53.746;10.058;2023-02-21T04:50:25;11.55;;;2.85;;
67278;SDS011;54193;53.746;10.058;2023-02-21T04:53:12;15.10;;;3.63;;
67278;SDS011;54193;53.746;10.058;2023-02-21T04:55:58;12.98;;;3.78;;
67278;SDS011;54193;53.746;10.058;2023-02-21T04:58:44;11.83;;;3.50;;
67278;SDS011;54193;53.746;10.058;2023-02-21T05:01:29;12.18;;;3.33;;
67278;SDS011;54193;53.746;10.058;2023-02-21T05:04:15;18.98;;;4.68;;
67278;SDS011;54193;53.746;10.058;2023-02-21T05:07:02;17.73;;;3.20;;
67278;SDS011;54193;53.746;10.058;2023-02-21T05:09:49;9.82;;;2.55;;
67278;SDS011;54193;53.746;10.058;2023-02-21T05:12:36;19.42;;;2.47;;
67278;SDS011;54193;53.746;10.058;2023-02-21T05:15:24;19.83;;;3.00;;
67278;SDS011;54193;53.746;10.058;2023-02-21T05:18:09;13.52;;;2.85;;
67278;SDS011;54193;53.746;10.058;2023-02-21T05:20:55;12.82;;;2.63;;
67278;SDS011;54193;53.746;10.058;2023-02-21T05:23:41;13.38;;;2.42;;
67278;SDS011;54193;53.746;10.058;2023-02-21T05:26:27;15.37;;;2.30;;
67278;SDS011;54193;53.746;10.058;2023-02-21T05:29:18;14.15;;;2.10;;
67278;SDS011;54193;53.746;10.058;2023-02-21T05:32:04;14.07;;;2.28;;
67278;SDS011;54193;53.746;10.058;2023-02-21T05:34:49;15.47;;;2.63;;
67278;SDS011;54193;53.746;10.058;2023-02-21T05:37:35;15.10;;;2.22;;
67278;SDS011;54193;53.746;10.058;2023-02-21T05:40:20;19.38;;;2.53;;
67278;SDS011;54193;53.746;10.058;2023-02-21T05:43:06;16.83;;;2.30;;
67278;SDS011;54193;53.746;10.058;2023-02-21T05:45:52;15.73;;;2.25;;
67278;SDS011;54193;53.746;10.058;2023-02-21T05:48:37;19.90;;;2.03;;
67278;SDS011;54193;53.746;10.058;2023-02-21T05:51:24;14.40;;;2.22;;
67278;SDS011;54193;53.746;10.058;2023-02-21T05:54:12;15.60;;;2.00;;
67278;SDS011;54193;53.746;10.058;2023-02-21T05:57:00;11.55;;;2.17;;
67278;SDS011;54193;53.746;10.058;2023-02-21T05:59:46;17.48;;;2.20;;
67278;SDS011;54193;53.746;10.058;2023-02-21T06:02:32;21.20;;;2.63;;
67278;SDS011;54193;53.746;10.058;2023-02-21T06:05:18;19.10;;;2.47;;
67278;SDS011;54193;53.746;10.058;2023-02-21T06:08:04;21.58;;;3.05;;
67278;SDS011;54193;53.746;10.058;2023-02-21T06:10:50;15.15;;;2.05;;
67278;SDS011;54193;53.746;10.058;2023-02-21T06:13:36;12.85;;;2.10;;
67278;SDS011;54193;53.746;10.058;2023-02-21T06:16:22;13.55;;;1.92;;
67278;SDS011;54193;53.746;10.058;2023-02-21T06:19:08;13.40;;;2.28;;
67278;SDS011;54193;53.746;10.058;2023-02-21T06:21:55;16.60;;;2.57;;
67278;SDS011;54193;53.746;10.058;2023-02-21T06:24:40;13.02;;;1.70;;
67278;SDS011;54193;53.746;10.058;2023-02-21T06:27:26;13.20;;;2.15;;
67278;SDS011;54193;53.746;10.058;2023-02-21T06:30:12;17.63;;;2.17;;
67278;SDS011;54193;53.746;10.058;2023-02-21T06:32:58;12.73;;;2.00;;
67278;SDS011;54193;53.746;10.058;2023-02-21T06:35:43;15.57;;;2.10;;
67278;SDS011;54193;53.746;10.058;2023-02-21T06:38:29;15.23;;;2.03;;
67278;SDS011;54193;53.746;10.058;2023-02-21T06:41:17;12.73;;;2.10;;
67278;SDS011;54193;53.746;10.058;2023-02-21T06:44:04;18.58;;;2.30;;
67278;SDS011;54193;53.746;10.058;2023-02-21T06:46:49;13.15;;;1.75;;
67278;SDS011;54193;53.746;10.058;2023-02-21T06:49:35;13.90;;;1.83;;
67278;SDS011;54193;53.746;10.058;2023-02-21T06:52:21;22.15;;;2.08;;
67278;SDS011;54193;53.746;10.058;2023-02-21T06:55:06;14.77;;;2.05;;
67278;SDS011;54193;53.746;10.058;2023-02-21T06:57:52;11.40;;;1.90;;
67278;SDS011;54193;53.746;10.058;2023-02-21T07:00:38;18.10;;;1.98;;
67278;SDS011;54193;53.746;10.058;2023-02-21T07:03:25;17.00;;;2.80;;
67278;SDS011;54193;53.746;10.058;2023-02-21T07:06:10;13.38;;;1.98;;
67278;SDS011;54193;53.746;10.058;2023-02-21T07:08:56;12.13;;;1.98;;
67278;SDS011;54193;53.746;10.058;2023-02-21T07:11:42;18.70;;;2.22;;
67278;SDS011;54193;53.746;10.058;2023-02-21T07:14:29;15.85;;;2.05;;
67278;SDS011;54193;53.746;10.058;2023-02-21T07:17:14;16.40;;;2.73;;
67278;SDS011;54193;53.746;10.058;2023-02-21T07:20:00;18.60;;;2.88;;
67278;SDS011;54193;53.746;10.058;2023-02-21T07:22:46;26.30;;;2.78;;
67278;SDS011;54193;53.746;10.058;2023-02-21T07:25:31;10.97;;;1.80;;
67278;SDS011;54193;53.746;10.058;2023-02-21T07:28:18;20.80;;;2.60;;
67278;SDS011;54193;53.746;10.058;2023-02-21T07:31:04;14.90;;;2.05;;
67278;SDS011;54193;53.746;10.058;2023-02-21T07:33:49;13.27;;;2.00;;
67278;SDS011;54193;53.746;10.058;2023-02-21T07:36:36;17.05;;;2.33;;
67278;SDS011;54193;53.746;10.058;2023-02-21T07:39:22;11.70;;;2.13;;
67278;SDS011;54193;53.746;10.058;2023-02-21T07:42:08;15.65;;;2.50;;
67278;SDS011;54193;53.746;10.058;2023-02-21T07:44:56;17.93;;;2.37;;
67278;SDS011;54193;53.746;10.058;2023-02-21T07:47:43;22.83;;;3.47;;
67278;SDS011;54193;53.746;10.058;2023-02-21T07:50:30;18.50;;;2.10;;
67278;SDS011;54193;53.746;10.058;2023-02-21T07:53:16;18.67;;;3.40;;
67278;SDS011;54193;53.746;10.058;2023-02-21T07:56:02;19.88;;;4.03;;
67278;SDS011;54193;53.746;10.058;2023-02-21T07:58:48;21.58;;;4.10;;
67278;SDS011;54193;53.746;10.058;2023-02-21T08:01:34;21.45;;;3.47;;
67278;SDS011;54193;53.746;10.058;2023-02-21T08:04:20;15.77;;;2.80;;
67278;SDS011;54193;53.746;10.058;2023-02-21T08:07:06;18.17;;;2.95;;
67278;SDS011;54193;53.746;10.058;2023-02-21T08:09:52;12.73;;;2.67;;
67278;SDS011;54193;53.746;10.058;2023-02-21T08:12:38;20.53;;;2.90;;
67278;SDS011;54193;53.746;10.058;2023-02-21T08:15:23;18.65;;;2.78;;
67278;SDS011;54193;53.746;10.058;2023-02-21T08:18:16;17.38;;;2.78;;
67278;SDS011;54193;53.746;10.058;2023-02-21T08:21:03;19.23;;;3.20;;
67278;SDS011;54193;53.746;10.058;2023-02-21T08:23:53;16.42;;;2.70;;
67278;SDS011;54193;53.746;10.058;2023-02-21T08:26:40;18.40;;;2.70;;
67278;SDS011;54193;53.746;10.058;2023-02-21T08:29:26;17.23;;;2.50;;
67278;SDS011;54193;53.746;10.058;2023-02-21T08:32:13;11.75;;;2.20;;
67278;SDS011;54193;53.746;10.058;2023-02-21T08:34:58;11.60;;;2.10;;
67278;SDS011;54193;53.746;10.058;2023-02-21T08:37:45;18.02;;;2.50;;
67278;SDS011;54193;53.746;10.058;2023-02-21T08:40:31;14.70;;;2.10;;
67278;SDS011;54193;53.746;10.058;2023-02-21T08:43:17;17.75;;;2.45;;
67278;SDS011;54193;53.746;10.058;2023-02-21T08:46:03;13.23;;;2.20;;
67278;SDS011;54193;53.746;10.058;2023-02-21T08:48:49;10.57;;;2.03;;
67278;SDS011;54193;53.746;10.058;2023-02-21T08:51:34;14.70;;;2.30;;
67278;SDS011;54193;53.746;10.058;2023-02-21T08:54:20;16.50;;;2.22;;
67278;SDS011;54193;53.746;10.058;2023-02-21T08:57:06;12.07;;;1.83;;
67278;SDS011;54193;53.746;10.058;2023-02-21T08:59:52;20.13;;;2.97;;
67278;SDS011;54193;53.746;10.058;2023-02-21T09:02:38;12.88;;;2.70;;
67278;SDS011;54193;53.746;10.058;2023-02-21T09:05:27;12.07;;;2.20;;
67278;SDS011;54193;53.746;10.058;2023-02-21T09:08:14;10.90;;;2.00;;
67278;SDS011;54193;53.746;10.058;2023-02-21T09:11:00;14.57;;;2.33;;
67278;SDS011;54193;53.746;10.058;2023-02-21T09:13:45;12.38;;;2.22;;
67278;SDS011;54193;53.746;10.058;2023-02-21T09:16:31;9.60;;;1.90;;
67278;SDS011;54193;53.746;10.058;2023-02-21T09:19:17;17.23;;;2.20;;
67278;SDS011;54193;53.746;10.058;2023-02-21T09:22:02;13.25;;;2.53;;
67278;SDS011;54193;53.746;10.058;2023-02-21T09:24:50;14.15;;;2.08;;
67278;SDS011;54193;53.746;10.058;2023-02-21T09:27:36;11.48;;;2.30;;
67278;SDS011;54193;53.746;10.058;2023-02-21T09:30:23;8.68;;;1.48;;
67278;SDS011;54193;53.746;10.058;2023-02-21T09:33:10;17.10;;;2.17;;
67278;SDS011;54193;53.746;10.058;2023-02-21T09:35:57;16.23;;;2.00;;
67278;SDS011;54193;53.746;10.058;2023-02-21T09:38:44;12.13;;;2.20;;
67278;SDS011;54193;53.746;10.058;2023-02-21T09:41:31;14.90;;;2.05;;
67278;SDS011;54193;53.746;10.058;2023-02-21T09:44:20;10.33;;;1.73;;
67278;SDS011;54193;53.746;10.058;2023-02-21T09:47:13;14.48;;;2.60;;
67278;SDS011;54193;53.746;10.058;2023-02-21T09:50:13;11.80;;;2.63;;
67278;SDS011;54193;53.746;10.058;2023-02-21T09:53:00;18.35;;;3.17;;
67278;SDS011;54193;53.746;10.058;2023-02-21T09:55:47;13.63;;;3.13;;
67278;SDS011;54193;53.746;10.058;2023-02-21T09:58:38;13.90;;;3.08;;
67278;SDS011;54193;53.746;10.058;2023-02-21T10:05:02;10.73;;;2.13;;
67278;SDS011;54193;53.746;10.058;2023-02-21T10:08:01;14.60;;;1.88;;
67278;SDS011;54193;53.746;10.058;2023-02-21T10:10:53;7.68;;;1.45;;
67278;SDS011;54193;53.746;10.058;2023-02-21T10:13:45;11.37;;;1.90;;
67278;SDS011;54193;53.746;10.058;2023-02-21T10:16:53;12.15;;;2.40;;
67278;SDS011;54193;53.746;10.058;2023-02-21T10:19:46;12.77;;;1.45;;
67278;SDS011;54193;53.746;10.058;2023-02-21T10:22:37;10.30;;;2.17;;
67278;SDS011;54193;53.746;10.058;2023-02-21T10:25:26;11.75;;;1.65;;
67278;SDS011;54193;53.746;10.058;2023-02-21T10:28:19;8.15;;;2.15;;
67278;SDS011;54193;53.746;10.058;2023-02-21T10:31:19;11.88;;;2.10;;
67278;SDS011;54193;53.746;10.058;2023-02-21T10:34:15;10.60;;;1.87;;
67278;SDS011;54193;53.746;10.058;2023-02-21T10:37:31;10.82;;;1.85;;
67278;SDS011;54193;53.746;10.058;2023-02-21T10:40:35;14.30;;;2.10;;
67278;SDS011;54193;53.746;10.058;2023-02-21T10:43:39;11.37;;;1.90;;
67278;SDS011;54193;53.746;10.058;2023-02-21T10:47:14;12.23;;;2.30;;
67278;SDS011;54193;53.746;10.058;2023-02-21T10:49:55;13.70;;;2.25;;
67278;SDS011;54193;53.746;10.058;2023-02-21T10:52:47;13.98;;;2.33;;
67278;SDS011;54193;53.746;10.058;2023-02-21T10:55:34;17.70;;;2.10;;
67278;SDS011;54193;53.746;10.058;2023-02-21T10:58:21;14.35;;;2.30;;
67278;SDS011;54193;53.746;10.058;2023-02-21T11:01:13;12.05;;;1.77;;
67278;SDS011;54193;53.746;10.058;2023-02-21T11:04:03;14.57;;;2.07;;
67278;SDS011;54193;53.746;10.058;2023-02-21T11:06:58;30.05;;;6.70;;
67278;SDS011;54193;53.746;10.058;2023-02-21T11:09:53;14.90;;;3.13;;
67278;SDS011;54193;53.746;10.058;2023-02-21T11:12:40;18.33;;;2.17;;
67278;SDS011;54193;53.746;10.058;2023-02-21T11:15:25;12.85;;;1.88;;
67278;SDS011;54193;53.746;10.058;2023-02-21T11:18:15;10.38;;;2.15;;
67278;SDS011;54193;53.746;10.058;2023-02-21T11:21:10;11.20;;;2.08;;
67278;SDS011;54193;53.746;10.058;2023-02-21T11:24:02;13.15;;;1.98;;
67278;SDS011;54193;53.746;10.058;2023-02-21T11:26:50;13.48;;;1.90;;
67278;SDS011;54193;53.746;10.058;2023-02-21T11:29:40;14.60;;;2.40;;
67278;SDS011;54193;53.746;10.058;2023-02-21T11:38:09;14.23;;;2.08;;
67278;SDS011;54193;53.746;10.058;2023-02-21T11:47:22;14.35;;;1.95;;
67278;SDS011;54193;53.746;10.058;2023-02-21T11:50:28;10.85;;;1.67;;
67278;SDS011;54193;53.746;10.058;2023-02-21T11:56:13;5.68;;;1.38;;
67278;SDS011;54193;53.746;10.058;2023-02-21T12:05:24;12.15;;;2.22;;
67278;SDS011;54193;53.746;10.058;2023-02-21T12:17:50;8.82;;;2.10;;
67278;SDS011;54193;53.746;10.058;2023-02-21T12:21:02;9.55;;;2.25;;
67278;SDS011;54193;53.746;10.058;2023-02-21T12:24:11;12.68;;;2.17;;
67278;SDS011;54193;53.746;10.058;2023-02-21T12:27:24;9.20;;;1.85;;
67278;SDS011;54193;53.746;10.058;2023-02-21T12:33:41;9.00;;;1.70;;
67278;SDS011;54193;53.746;10.058;2023-02-21T12:36:41;8.32;;;2.08;;
67278;SDS011;54193;53.746;10.058;2023-02-21T12:39:56;9.77;;;2.10;;
67278;SDS011;54193;53.746;10.058;2023-02-21T12:42:56;11.00;;;2.37;;
67278;SDS011;54193;53.746;10.058;2023-02-21T12:48:43;10.07;;;2.10;;
67278;SDS011;54193;53.746;10.058;2023-02-21T12:51:40;7.40;;;1.83;;
67278;SDS011;54193;53.746;10.058;2023-02-21T12:54:46;7.38;;;2.17;;
67278;SDS011;54193;53.746;10.058;2023-02-21T12:57:58;6.30;;;1.90;;
67278;SDS011;54193;53.746;10.058;2023-02-21T13:00:53;10.48;;;2.47;;
67278;SDS011;54193;53.746;10.058;2023-02-21T13:07:13;9.57;;;2.35;;
67278;SDS011;54193;53.746;10.058;2023-02-21T13:10:25;10.90;;;2.90;;
67278;SDS011;54193;53.746;10.058;2023-02-21T13:13:21;9.37;;;2.40;;
67278;SDS011;54193;53.746;10.058;2023-02-21T13:16:11;11.15;;;2.83;;
67278;SDS011;54193;53.746;10.058;2023-02-21T13:18:59;11.73;;;2.13;;
67278;SDS011;54193;53.746;10.058;2023-02-21T13:21:57;10.90;;;2.15;;
67278;SDS011;54193;53.746;10.058;2023-02-21T13:28:34;5.97;;;1.67;;
67278;SDS011;54193;53.746;10.058;2023-02-21T13:31:24;10.55;;;2.03;;
67278;SDS011;54193;53.746;10.058;2023-02-21T13:34:11;8.33;;;1.70;;
67278;SDS011;54193;53.746;10.058;2023-02-21T13:37:09;7.43;;;1.45;;
67278;SDS011;54193;53.746;10.058;2023-02-21T13:40:05;7.32;;;1.77;;
67278;SDS011;54193;53.746;10.058;2023-02-21T13:46:21;8.38;;;1.45;;
67278;SDS011;54193;53.746;10.058;2023-02-21T13:52:33;8.93;;;1.50;;
67278;SDS011;54193;53.746;10.058;2023-02-21T13:55:22;5.25;;;1.10;;
67278;SDS011;54193;53.746;10.058;2023-02-21T14:00:56;7.30;;;1.30;;
67278;SDS011;54193;53.746;10.058;2023-02-21T14:03:57;7.60;;;1.77;;
67278;SDS011;54193;53.746;10.058;2023-02-21T14:06:42;8.55;;;1.45;;
67278;SDS011;54193;53.746;10.058;2023-02-21T14:09:40;10.75;;;1.70;;
67278;SDS011;54193;53.746;10.058;2023-02-21T14:12:27;12.13;;;2.50;;
67278;SDS011;54193;53.746;10.058;2023-02-21T14:15:12;8.05;;;1.40;;
67278;SDS011;54193;53.746;10.058;2023-02-21T14:17:58;10.48;;;2.30;;
67278;SDS011;54193;53.746;10.058;2023-02-21T14:20:49;9.73;;;2.05;;
67278;SDS011;54193;53.746;10.058;2023-02-21T14:23:40;8.32;;;1.40;;
67278;SDS011;54193;53.746;10.058;2023-02-21T14:29:30;10.52;;;2.25;;
67278;SDS011;54193;53.746;10.058;2023-02-21T14:32:25;12.80;;;2.30;;
67278;SDS011;54193;53.746;10.058;2023-02-21T14:35:33;9.75;;;2.17;;
67278;SDS011;54193;53.746;10.058;2023-02-21T14:38:23;11.90;;;2.35;;
67278;SDS011;54193;53.746;10.058;2023-02-21T14:53:08;8.38;;;2.00;;
67278;SDS011;54193;53.746;10.058;2023-02-21T14:56:18;10.38;;;2.20;;
67278;SDS011;54193;53.746;10.058;2023-02-21T14:59:31;11.80;;;2.42;;
67278;SDS011;54193;53.746;10.058;2023-02-21T15:02:29;8.47;;;2.60;;
67278;SDS011;54193;53.746;10.058;2023-02-21T15:05:29;12.18;;;2.90;;
67278;SDS011;54193;53.746;10.058;2023-02-21T15:08:23;10.18;;;2.42;;
67278;SDS011;54193;53.746;10.058;2023-02-21T15:11:23;12.93;;;3.30;;
67278;SDS011;54193;53.746;10.058;2023-02-21T15:14:22;9.98;;;2.47;;
67278;SDS011;54193;53.746;10.058;2023-02-21T15:17:12;8.30;;;2.45;;
67278;SDS011;54193;53.746;10.058;2023-02-21T15:20:11;9.65;;;2.60;;
67278;SDS011;54193;53.746;10.058;2023-02-21T15:25:55;12.20;;;2.60;;
67278;SDS011;54193;53.746;10.058;2023-02-21T15:28:43;6.70;;;1.90;;
67278;SDS011;54193;53.746;10.058;2023-02-21T15:32:03;13.20;;;2.50;;
67278;SDS011;54193;53.746;10.058;2023-02-21T15:34:42;9.38;;;1.65;;
67278;SDS011;54193;53.746;10.058;2023-02-21T15:37:30;8.38;;;1.98;;
67278;SDS011;54193;53.746;10.058;2023-02-21T15:40:19;10.30;;;2.43;;
67278;SDS011;54193;53.746;10.058;2023-02-21T15:43:09;13.15;;;2.53;;
67278;SDS011;54193;53.746;10.058;2023-02-21T15:46:07;12.63;;;3.05;;
67278;SDS011;54193;53.746;10.058;2023-02-21T15:48:58;9.95;;;2.83;;
67278;SDS011;54193;53.746;10.058;2023-02-21T15:51:45;10.07;;;1.92;;
67278;SDS011;54193;53.746;10.058;2023-02-21T15:54:32;10.75;;;2.33;;
67278;SDS011;54193;53.746;10.058;2023-02-21T15:57:22;10.48;;;2.30;;
67278;SDS011;54193;53.746;10.058;2023-02-21T16:12:17;9.85;;;2.20;;
67278;SDS011;54193;53.746;10.058;2023-02-21T16:18:08;7.43;;;2.08;;
67278;SDS011;54193;53.746;10.058;2023-02-21T16:21:00;11.18;;;2.20;;
67278;SDS011;54193;53.746;10.058;2023-02-21T16:23:48;8.55;;;2.10;;
67278;SDS011;54193;53.746;10.058;2023-02-21T16:26:33;12.32;;;2.20;;
67278;SDS011;54193;53.746;10.058;2023-02-21T16:29:19;8.07;;;2.13;;
67278;SDS011;54193;53.746;10.058;2023-02-21T16:32:05;12.80;;;2.90;;
67278;SDS011;54193;53.746;10.058;2023-02-21T16:34:59;11.30;;;2.60;;
67278;SDS011;54193;53.746;10.058;2023-02-21T16:37:45;12.10;;;2.73;;
67278;SDS011;54193;53.746;10.058;2023-02-21T16:40:36;10.00;;;2.65;;
67278;SDS011;54193;53.746;10.058;2023-02-21T16:43:25;11.93;;;3.00;;
67278;SDS011;54193;53.746;10.058;2023-02-21T16:46:12;10.52;;;2.70;;
67278;SDS011;54193;53.746;10.058;2023-02-21T16:48:58;10.80;;;2.60;;
67278;SDS011;54193;53.746;10.058;2023-02-21T16:51:44;10.38;;;2.58;;
67278;SDS011;54193;53.746;10.058;2023-02-21T16:54:29;11.13;;;2.88;;
67278;SDS011;54193;53.746;10.058;2023-02-21T16:57:15;11.90;;;3.00;;
67278;SDS011;54193;53.746;10.058;2023-02-21T17:00:01;9.90;;;2.50;;
67278;SDS011;54193;53.746;10.058;2023-02-21T17:02:50;11.07;;;2.90;;
67278;SDS011;54193;53.746;10.058;2023-02-21T17:05:37;14.77;;;3.10;;
67278;SDS011;54193;53.746;10.058;2023-02-21T17:08:23;11.45;;;2.85;;
67278;SDS011;54193;53.746;10.058;2023-02-21T17:11:09;13.48;;;3.10;;
67278;SDS011;54193;53.746;10.058;2023-02-21T17:13:55;11.50;;;3.00;;
67278;SDS011;54193;53.746;10.058;2023-02-21T17:16:42;14.98;;;4.10;;
67278;SDS011;54193;53.746;10.058;2023-02-21T17:19:29;12.55;;;3.50;;
67278;SDS011;54193;53.746;10.058;2023-02-21T17:22:15;14.27;;;3.88;;
67278;SDS011;54193;53.746;10.058;2023-02-21T17:25:02;12.23;;;3.20;;
67278;SDS011;54193;53.746;10.058;2023-02-21T17:27:48;12.65;;;3.60;;
67278;SDS011;54193;53.746;10.058;2023-02-21T17:30:34;13.90;;;4.20;;
67278;SDS011;54193;53.746;10.058;2023-02-21T17:33:20;10.67;;;3.10;;
67278;SDS011;54193;53.746;10.058;2023-02-21T17:36:06;10.18;;;3.05;;
67278;SDS011;54193;53.746;10.058;2023-02-21T17:38:53;9.85;;;3.03;;
67278;SDS011;54193;53.746;10.058;2023-02-21T17:41:44;10.82;;;2.97;;
67278;SDS011;54193;53.746;10.058;2023-02-21T17:44:31;11.27;;;3.58;;
67278;SDS011;54193;53.746;10.058;2023-02-21T17:47:18;11.05;;;2.90;;
67278;SDS011;54193;53.746;10.058;2023-02-21T17:50:06;12.05;;;3.40;;
67278;SDS011;54193;53.746;10.058;2023-02-21T17:52:52;10.00;;;3.17;;
67278;SDS011;54193;53.746;10.058;2023-02-21T17:55:38;9.90;;;3.60;;
67278;SDS011;54193;53.746;10.058;2023-02-21T17:58:24;10.80;;;3.00;;
67278;SDS011;54193;53.746;10.058;2023-02-21T18:01:15;10.53;;;3.30;;
67278;SDS011;54193;53.746;10.058;2023-02-21T18:04:02;12.65;;;3.03;;
67278;SDS011;54193;53.746;10.058;2023-02-21T18:06:49;12.75;;;3.33;;
67278;SDS011;54193;53.746;10.058;2023-02-21T18:09:35;15.65;;;4.22;;
67278;SDS011;54193;53.746;10.058;2023-02-21T18:12:21;13.93;;;4.95;;
67278;SDS011;54193;53.746;10.058;2023-02-21T18:15:06;14.25;;;4.25;;
67278;SDS011;54193;53.746;10.058;2023-02-21T18:17:54;13.20;;;4.78;;
67278;SDS011;54193;53.746;10.058;2023-02-21T18:20:41;14.27;;;4.17;;
67278;SDS011;54193;53.746;10.058;2023-02-21T18:23:27;12.88;;;3.55;;
67278;SDS011;54193;53.746;10.058;2023-02-21T18:26:17;12.35;;;4.00;;
67278;SDS011;54193;53.746;10.058;2023-02-21T18:29:04;10.93;;;3.80;;
67278;SDS011;54193;53.746;10.058;2023-02-21T18:31:53;14.77;;;4.25;;
67278;SDS011;54193;53.746;10.058;2023-02-21T18:34:39;11.95;;;3.85;;
67278;SDS011;54193;53.746;10.058;2023-02-21T18:37:24;13.98;;;5.13;;
67278;SDS011;54193;53.746;10.058;2023-02-21T18:40:11;11.98;;;3.80;;
67278;SDS011;54193;53.746;10.058;2023-02-21T18:42:59;12.40;;;4.35;;
67278;SDS011;54193;53.746;10.058;2023-02-21T18:45:46;19.35;;;5.13;;
67278;SDS011;54193;53.746;10.058;2023-02-21T18:48:33;14.87;;;5.43;;